sensor_id;sensor_type;location;lat;lon;timestamp;P1;durP1;ratioP1;P2;durP2;ratioP2
1471;SDS011;963;42.644;23.336;2023-03-01T00:03:52;6.10;;;4.47;;
1471;SDS011;963;42.644;23.336;2023-03-01T00:06:19;4.53;;;3.73;;
1471;SDS011;963;42.644;23.336;2023-03-01T00:08:45;5.00;;;3.90;;
1471;SDS011;963;42.644;23.336;2023-03-01T00:11:21;4.27;;;3.73;;
1471;SDS011;963;42.644;23.336;2023-03-01T00:13:54;4.20;;;3.53;;
1471;SDS011;963;42.644;23.336;2023-03-01T00:16:22;4.83;;;3.87;;
1471;SDS011;963;42.644;23.336;2023-03-01T00:18:48;4.90;;;4.27;;
1471;SDS011;963;42.644;23.336;2023-03-01T00:21:14;4.57;;;3.77;;
1471;SDS011;963;42.644;23.336;2023-03-01T00:23:39;5.27;;;4.10;;
1471;SDS011;963;42.644;23.336;2023-03-01T00:26:06;6.27;;;4.70;;
1471;SDS011;963;42.644;23.336;2023-03-01T00:28:33;5.90;;;4.70;;
1471;SDS011;963;42.644;23.336;2023-03-01T00:31:06;4.73;;;4.23;;
1471;SDS011;963;42.644;23.336;2023-03-01T00:33:33;4.40;;;4.00;;
1471;SDS011;963;42.644;23.336;2023-03-01T00:35:59;6.50;;;4.57;;
1471;SDS011;963;42.644;23.336;2023-03-01T00:38:25;5.00;;;4.43;;
1471;SDS011;963;42.644;23.336;2023-03-01T00:40:50;5.50;;;4.53;;
1471;SDS011;963;42.644;23.336;2023-03-01T00:43:16;5.20;;;4.20;;
1471;SDS011;963;42.644;23.336;2023-03-01T00:45:43;4.13;;;3.70;;
1471;SDS011;963;42.644;23.336;2023-03-01T00:48:08;4.77;;;4.27;;
1471;SDS011;963;42.644;23.336;2023-03-01T00:50:33;4.77;;;3.97;;
1471;SDS011;963;42.644;23.336;2023-03-01T00:52:59;4.33;;;3.60;;
1471;SDS011;963;42.644;23.336;2023-03-01T00:55:25;4.27;;;3.87;;
1471;SDS011;963;42.644;23.336;2023-03-01T00:57:50;4.40;;;3.67;;
1471;SDS011;963;42.644;23.336;2023-03-01T01:00:16;4.40;;;3.33;;
1471;SDS011;963;42.644;23.336;2023-03-01T01:02:43;4.37;;;3.53;;
1471;SDS011;963;42.644;23.336;2023-03-01T01:05:09;4.07;;;3.23;;
1471;SDS011;963;42.644;23.336;2023-03-01T01:07:34;4.60;;;3.57;;
1471;SDS011;963;42.644;23.336;2023-03-01T01:10:00;4.47;;;3.47;;
1471;SDS011;963;42.644;23.336;2023-03-01T01:12:26;4.10;;;3.37;;
1471;SDS011;963;42.644;23.336;2023-03-01T01:14:51;4.27;;;3.43;;
1471;SDS011;963;42.644;23.336;2023-03-01T01:17:16;3.87;;;3.20;;
1471;SDS011;963;42.644;23.336;2023-03-01T01:19:42;3.20;;;2.90;;
1471;SDS011;963;42.644;23.336;2023-03-01T01:22:07;3.13;;;2.83;;
1471;SDS011;963;42.644;23.336;2023-03-01T01:24:33;4.17;;;2.97;;
1471;SDS011;963;42.644;23.336;2023-03-01T01:26:58;5.00;;;3.10;;
1471;SDS011;963;42.644;23.336;2023-03-01T01:29:23;2.87;;;2.40;;
1471;SDS011;963;42.644;23.336;2023-03-01T01:31:49;4.63;;;2.73;;
1471;SDS011;963;42.644;23.336;2023-03-01T01:34:19;3.00;;;2.67;;
1471;SDS011;963;42.644;23.336;2023-03-01T01:36:52;3.00;;;2.70;;
1471;SDS011;963;42.644;23.336;2023-03-01T01:39:20;3.83;;;3.17;;
1471;SDS011;963;42.644;23.336;2023-03-01T01:41:46;2.60;;;2.13;;
1471;SDS011;963;42.644;23.336;2023-03-01T01:46:55;2.83;;;2.63;;
1471;SDS011;963;42.644;23.336;2023-03-01T01:51:58;2.53;;;2.30;;
1471;SDS011;963;42.644;23.336;2023-03-01T01:54:36;2.27;;;2.07;;
1471;SDS011;963;42.644;23.336;2023-03-01T01:57:23;3.03;;;2.63;;
1471;SDS011;963;42.644;23.336;2023-03-01T01:59:53;2.20;;;2.00;;
1471;SDS011;963;42.644;23.336;2023-03-01T02:02:22;2.63;;;2.30;;
1471;SDS011;963;42.644;23.336;2023-03-01T02:04:49;2.67;;;2.23;;
1471;SDS011;963;42.644;23.336;2023-03-01T02:07:21;2.73;;;2.30;;
1471;SDS011;963;42.644;23.336;2023-03-01T02:09:49;2.63;;;2.43;;
1471;SDS011;963;42.644;23.336;2023-03-01T02:12:17;2.33;;;2.13;;
1471;SDS011;963;42.644;23.336;2023-03-01T02:14:45;7.13;;;3.50;;
1471;SDS011;963;42.644;23.336;2023-03-01T02:17:14;3.80;;;2.57;;
1471;SDS011;963;42.644;23.336;2023-03-01T02:22:37;2.70;;;2.50;;
1471;SDS011;963;42.644;23.336;2023-03-01T02:30:28;2.50;;;2.30;;
1471;SDS011;963;42.644;23.336;2023-03-01T02:32:55;2.53;;;2.33;;
1471;SDS011;963;42.644;23.336;2023-03-01T02:35:27;2.50;;;2.30;;
1471;SDS011;963;42.644;23.336;2023-03-01T02:37:59;3.00;;;2.40;;
1471;SDS011;963;42.644;23.336;2023-03-01T02:40:27;3.27;;;2.97;;
1471;SDS011;963;42.644;23.336;2023-03-01T02:42:55;3.20;;;2.90;;
1471;SDS011;963;42.644;23.336;2023-03-01T02:45:23;3.07;;;2.70;;
1471;SDS011;963;42.644;23.336;2023-03-01T02:47:49;3.30;;;3.00;;
1471;SDS011;963;42.644;23.336;2023-03-01T02:50:19;3.10;;;2.77;;
1471;SDS011;963;42.644;23.336;2023-03-01T02:53:02;3.27;;;2.97;;
1471;SDS011;963;42.644;23.336;2023-03-01T02:55:34;3.77;;;3.30;;
1471;SDS011;963;42.644;23.336;2023-03-01T02:57:59;2.90;;;2.60;;
1471;SDS011;963;42.644;23.336;2023-03-01T03:00:28;4.83;;;4.07;;
1471;SDS011;963;42.644;23.336;2023-03-01T03:03:00;5.63;;;4.30;;
1471;SDS011;963;42.644;23.336;2023-03-01T03:05:27;4.17;;;3.77;;
1471;SDS011;963;42.644;23.336;2023-03-01T03:07:55;5.07;;;3.90;;
1471;SDS011;963;42.644;23.336;2023-03-01T03:10:28;4.80;;;4.30;;
1471;SDS011;963;42.644;23.336;2023-03-01T03:13:01;6.27;;;4.27;;
1471;SDS011;963;42.644;23.336;2023-03-01T03:15:29;5.27;;;4.77;;
1471;SDS011;963;42.644;23.336;2023-03-01T03:17:55;5.60;;;4.63;;
1471;SDS011;963;42.644;23.336;2023-03-01T03:20:23;5.60;;;4.33;;
1471;SDS011;963;42.644;23.336;2023-03-01T03:22:51;6.20;;;5.53;;
1471;SDS011;963;42.644;23.336;2023-03-01T03:25:19;6.10;;;5.30;;
1471;SDS011;963;42.644;23.336;2023-03-01T03:27:47;6.80;;;5.70;;
1471;SDS011;963;42.644;23.336;2023-03-01T03:30:18;5.30;;;4.50;;
1471;SDS011;963;42.644;23.336;2023-03-01T03:32:46;7.17;;;6.10;;
1471;SDS011;963;42.644;23.336;2023-03-01T03:35:26;6.53;;;5.00;;
1471;SDS011;963;42.644;23.336;2023-03-01T03:37:55;7.60;;;5.90;;
1471;SDS011;963;42.644;23.336;2023-03-01T03:40:27;7.23;;;5.20;;
1471;SDS011;963;42.644;23.336;2023-03-01T03:42:55;6.57;;;5.90;;
1471;SDS011;963;42.644;23.336;2023-03-01T03:45:20;6.83;;;5.43;;
1471;SDS011;963;42.644;23.336;2023-03-01T03:47:46;9.83;;;5.43;;
1471;SDS011;963;42.644;23.336;2023-03-01T03:50:13;8.17;;;4.80;;
1471;SDS011;963;42.644;23.336;2023-03-01T03:52:41;6.77;;;6.03;;
1471;SDS011;963;42.644;23.336;2023-03-01T03:55:07;5.70;;;4.53;;
1471;SDS011;963;42.644;23.336;2023-03-01T03:57:35;6.83;;;5.53;;
1471;SDS011;963;42.644;23.336;2023-03-01T04:00:01;5.00;;;3.97;;
1471;SDS011;963;42.644;23.336;2023-03-01T04:02:30;5.93;;;5.33;;
1471;SDS011;963;42.644;23.336;2023-03-01T04:04:55;6.00;;;4.53;;
1471;SDS011;963;42.644;23.336;2023-03-01T04:07:21;6.23;;;4.00;;
1471;SDS011;963;42.644;23.336;2023-03-01T04:09:46;5.20;;;4.50;;
1471;SDS011;963;42.644;23.336;2023-03-01T04:12:12;4.77;;;3.90;;
1471;SDS011;963;42.644;23.336;2023-03-01T04:14:37;4.73;;;4.03;;
1471;SDS011;963;42.644;23.336;2023-03-01T04:17:02;4.33;;;3.93;;
1471;SDS011;963;42.644;23.336;2023-03-01T04:19:30;5.93;;;4.60;;
1471;SDS011;963;42.644;23.336;2023-03-01T04:22:01;4.60;;;3.80;;
1471;SDS011;963;42.644;23.336;2023-03-01T04:24:32;9.60;;;3.80;;
1471;SDS011;963;42.644;23.336;2023-03-01T04:26:58;5.47;;;4.13;;
1471;SDS011;963;42.644;23.336;2023-03-01T04:29:23;3.57;;;3.27;;
1471;SDS011;963;42.644;23.336;2023-03-01T04:31:49;3.80;;;3.10;;
1471;SDS011;963;42.644;23.336;2023-03-01T04:34:14;4.83;;;3.93;;
1471;SDS011;963;42.644;23.336;2023-03-01T04:36:40;4.47;;;3.90;;
1471;SDS011;963;42.644;23.336;2023-03-01T04:39:05;5.57;;;3.93;;
1471;SDS011;963;42.644;23.336;2023-03-01T04:41:37;3.77;;;3.20;;
1471;SDS011;963;42.644;23.336;2023-03-01T04:44:06;5.27;;;4.20;;
1471;SDS011;963;42.644;23.336;2023-03-01T04:46:32;5.77;;;3.90;;
1471;SDS011;963;42.644;23.336;2023-03-01T04:48:57;4.40;;;3.73;;
1471;SDS011;963;42.644;23.336;2023-03-01T04:51:22;5.70;;;3.90;;
1471;SDS011;963;42.644;23.336;2023-03-01T04:53:48;5.87;;;4.50;;
1471;SDS011;963;42.644;23.336;2023-03-01T04:56:14;4.90;;;4.40;;
1471;SDS011;963;42.644;23.336;2023-03-01T04:58:40;4.27;;;3.33;;
1471;SDS011;963;42.644;23.336;2023-03-01T05:01:17;4.90;;;3.97;;
1471;SDS011;963;42.644;23.336;2023-03-01T05:03:45;4.93;;;4.13;;
1471;SDS011;963;42.644;23.336;2023-03-01T05:06:12;5.60;;;4.37;;
1471;SDS011;963;42.644;23.336;2023-03-01T05:08:38;4.90;;;4.30;;
1471;SDS011;963;42.644;23.336;2023-03-01T05:11:04;5.30;;;4.20;;
1471;SDS011;963;42.644;23.336;2023-03-01T05:13:30;5.43;;;4.43;;
1471;SDS011;963;42.644;23.336;2023-03-01T05:15:57;4.93;;;4.13;;
1471;SDS011;963;42.644;23.336;2023-03-01T05:18:25;6.53;;;4.50;;
1471;SDS011;963;42.644;23.336;2023-03-01T05:20:52;4.13;;;3.67;;
1471;SDS011;963;42.644;23.336;2023-03-01T05:23:23;5.07;;;4.13;;
1471;SDS011;963;42.644;23.336;2023-03-01T05:25:49;3.60;;;3.30;;
1471;SDS011;963;42.644;23.336;2023-03-01T05:28:17;5.93;;;4.57;;
1471;SDS011;963;42.644;23.336;2023-03-01T05:30:44;4.40;;;3.90;;
1471;SDS011;963;42.644;23.336;2023-03-01T05:33:10;4.70;;;3.83;;
1471;SDS011;963;42.644;23.336;2023-03-01T05:35:38;4.80;;;3.97;;
1471;SDS011;963;42.644;23.336;2023-03-01T05:38:06;5.57;;;4.00;;
1471;SDS011;963;42.644;23.336;2023-03-01T05:40:32;6.07;;;4.20;;
1471;SDS011;963;42.644;23.336;2023-03-01T05:42:58;5.23;;;3.77;;
1471;SDS011;963;42.644;23.336;2023-03-01T05:45:24;4.00;;;3.13;;
1471;SDS011;963;42.644;23.336;2023-03-01T05:47:51;3.23;;;2.60;;
1471;SDS011;963;42.644;23.336;2023-03-01T05:50:21;3.77;;;3.00;;
1471;SDS011;963;42.644;23.336;2023-03-01T05:52:52;4.20;;;3.80;;
1471;SDS011;963;42.644;23.336;2023-03-01T05:55:22;4.90;;;4.00;;
1471;SDS011;963;42.644;23.336;2023-03-01T05:57:48;8.47;;;4.07;;
1471;SDS011;963;42.644;23.336;2023-03-01T06:00:16;5.53;;;3.20;;
1471;SDS011;963;42.644;23.336;2023-03-01T06:02:43;4.03;;;3.17;;
1471;SDS011;963;42.644;23.336;2023-03-01T06:05:10;3.63;;;3.33;;
1471;SDS011;963;42.644;23.336;2023-03-01T06:07:36;3.23;;;2.87;;
1471;SDS011;963;42.644;23.336;2023-03-01T06:10:03;4.00;;;3.17;;
1471;SDS011;963;42.644;23.336;2023-03-01T06:12:30;7.97;;;2.37;;
1471;SDS011;963;42.644;23.336;2023-03-01T06:14:56;5.10;;;2.53;;
1471;SDS011;963;42.644;23.336;2023-03-01T06:17:22;3.40;;;3.10;;
1471;SDS011;963;42.644;23.336;2023-03-01T06:19:47;3.57;;;3.20;;
1471;SDS011;963;42.644;23.336;2023-03-01T06:22:13;3.73;;;2.80;;
1471;SDS011;963;42.644;23.336;2023-03-01T06:24:38;3.20;;;2.70;;
1471;SDS011;963;42.644;23.336;2023-03-01T06:27:04;4.00;;;2.43;;
1471;SDS011;963;42.644;23.336;2023-03-01T06:29:29;4.30;;;2.43;;
1471;SDS011;963;42.644;23.336;2023-03-01T06:31:54;5.63;;;2.53;;
1471;SDS011;963;42.644;23.336;2023-03-01T06:34:20;4.73;;;2.90;;
1471;SDS011;963;42.644;23.336;2023-03-01T06:36:46;4.60;;;2.83;;
1471;SDS011;963;42.644;23.336;2023-03-01T06:39:12;2.90;;;2.40;;
1471;SDS011;963;42.644;23.336;2023-03-01T06:41:37;9.57;;;3.40;;
1471;SDS011;963;42.644;23.336;2023-03-01T06:44:03;2.93;;;1.90;;
1471;SDS011;963;42.644;23.336;2023-03-01T06:46:28;5.57;;;2.50;;
1471;SDS011;963;42.644;23.336;2023-03-01T06:48:54;4.03;;;2.50;;
1471;SDS011;963;42.644;23.336;2023-03-01T06:51:19;2.57;;;2.20;;
1471;SDS011;963;42.644;23.336;2023-03-01T06:53:45;3.47;;;2.70;;
1471;SDS011;963;42.644;23.336;2023-03-01T06:56:11;4.03;;;2.47;;
1471;SDS011;963;42.644;23.336;2023-03-01T06:58:37;4.23;;;2.90;;
1471;SDS011;963;42.644;23.336;2023-03-01T07:01:06;5.73;;;3.20;;
1471;SDS011;963;42.644;23.336;2023-03-01T07:03:32;4.17;;;3.00;;
1471;SDS011;963;42.644;23.336;2023-03-01T07:05:57;6.17;;;4.23;;
1471;SDS011;963;42.644;23.336;2023-03-01T07:08:23;3.33;;;3.00;;
1471;SDS011;963;42.644;23.336;2023-03-01T07:10:48;3.93;;;2.90;;
1471;SDS011;963;42.644;23.336;2023-03-01T07:13:19;6.30;;;3.80;;
1471;SDS011;963;42.644;23.336;2023-03-01T07:15:44;5.10;;;3.70;;
1471;SDS011;963;42.644;23.336;2023-03-01T07:18:10;4.40;;;3.70;;
1471;SDS011;963;42.644;23.336;2023-03-01T07:20:35;3.40;;;2.97;;
1471;SDS011;963;42.644;23.336;2023-03-01T07:23:00;8.33;;;3.20;;
1471;SDS011;963;42.644;23.336;2023-03-01T07:25:26;6.87;;;3.83;;
1471;SDS011;963;42.644;23.336;2023-03-01T07:27:51;5.90;;;2.90;;
1471;SDS011;963;42.644;23.336;2023-03-01T07:30:17;3.07;;;2.77;;
1471;SDS011;963;42.644;23.336;2023-03-01T07:32:43;2.73;;;2.43;;
1471;SDS011;963;42.644;23.336;2023-03-01T07:35:10;3.73;;;3.30;;
1471;SDS011;963;42.644;23.336;2023-03-01T07:37:35;5.77;;;3.53;;
1471;SDS011;963;42.644;23.336;2023-03-01T07:40:01;4.30;;;3.57;;
1471;SDS011;963;42.644;23.336;2023-03-01T07:42:26;4.70;;;2.87;;
1471;SDS011;963;42.644;23.336;2023-03-01T07:44:51;9.30;;;3.30;;
1471;SDS011;963;42.644;23.336;2023-03-01T07:47:17;3.63;;;2.70;;
1471;SDS011;963;42.644;23.336;2023-03-01T07:49:42;2.47;;;2.27;;
1471;SDS011;963;42.644;23.336;2023-03-01T07:52:09;6.33;;;3.50;;
1471;SDS011;963;42.644;23.336;2023-03-01T07:54:36;3.80;;;3.40;;
1471;SDS011;963;42.644;23.336;2023-03-01T07:57:01;6.10;;;3.53;;
1471;SDS011;963;42.644;23.336;2023-03-01T07:59:27;4.93;;;3.00;;
1471;SDS011;963;42.644;23.336;2023-03-01T08:01:54;3.20;;;2.63;;
1471;SDS011;963;42.644;23.336;2023-03-01T08:04:23;4.10;;;2.87;;
1471;SDS011;963;42.644;23.336;2023-03-01T08:06:50;3.30;;;2.93;;
1471;SDS011;963;42.644;23.336;2023-03-01T08:09:16;4.40;;;2.90;;
1471;SDS011;963;42.644;23.336;2023-03-01T08:11:41;4.50;;;3.10;;
1471;SDS011;963;42.644;23.336;2023-03-01T08:14:06;3.30;;;3.00;;
1471;SDS011;963;42.644;23.336;2023-03-01T08:16:32;4.27;;;2.20;;
1471;SDS011;963;42.644;23.336;2023-03-01T08:19:03;2.90;;;2.60;;
1471;SDS011;963;42.644;23.336;2023-03-01T08:21:29;4.73;;;2.97;;
1471;SDS011;963;42.644;23.336;2023-03-01T08:23:55;5.93;;;3.50;;
1471;SDS011;963;42.644;23.336;2023-03-01T08:26:20;4.27;;;3.60;;
1471;SDS011;963;42.644;23.336;2023-03-01T08:28:47;3.50;;;3.17;;
1471;SDS011;963;42.644;23.336;2023-03-01T08:31:21;3.93;;;2.77;;
1471;SDS011;963;42.644;23.336;2023-03-01T08:33:53;7.13;;;3.43;;
1471;SDS011;963;42.644;23.336;2023-03-01T08:36:23;3.87;;;3.27;;
1471;SDS011;963;42.644;23.336;2023-03-01T08:38:50;6.10;;;3.67;;
1471;SDS011;963;42.644;23.336;2023-03-01T08:41:16;4.70;;;3.60;;
1471;SDS011;963;42.644;23.336;2023-03-01T08:43:42;6.17;;;4.47;;
1471;SDS011;963;42.644;23.336;2023-03-01T08:46:07;5.43;;;3.53;;
1471;SDS011;963;42.644;23.336;2023-03-01T08:48:33;7.10;;;3.30;;
1471;SDS011;963;42.644;23.336;2023-03-01T08:51:08;4.93;;;4.13;;
1471;SDS011;963;42.644;23.336;2023-03-01T08:53:38;6.40;;;2.83;;
1471;SDS011;963;42.644;23.336;2023-03-01T08:56:04;3.00;;;2.70;;
1471;SDS011;963;42.644;23.336;2023-03-01T08:58:30;4.10;;;3.13;;
1471;SDS011;963;42.644;23.336;2023-03-01T09:00:55;4.00;;;3.10;;
1471;SDS011;963;42.644;23.336;2023-03-01T09:03:24;3.80;;;2.80;;
1471;SDS011;963;42.644;23.336;2023-03-01T09:05:50;3.83;;;3.00;;
1471;SDS011;963;42.644;23.336;2023-03-01T09:08:16;5.03;;;3.80;;
1471;SDS011;963;42.644;23.336;2023-03-01T09:10:42;3.63;;;3.27;;
1471;SDS011;963;42.644;23.336;2023-03-01T09:13:08;6.33;;;3.13;;
1471;SDS011;963;42.644;23.336;2023-03-01T09:15:36;2.73;;;2.50;;
1471;SDS011;963;42.644;23.336;2023-03-01T09:18:02;5.07;;;3.33;;
1471;SDS011;963;42.644;23.336;2023-03-01T09:20:27;5.93;;;3.47;;
1471;SDS011;963;42.644;23.336;2023-03-01T09:22:53;3.90;;;2.97;;
1471;SDS011;963;42.644;23.336;2023-03-01T09:25:18;9.30;;;4.47;;
1471;SDS011;963;42.644;23.336;2023-03-01T09:27:43;4.03;;;3.17;;
1471;SDS011;963;42.644;23.336;2023-03-01T09:30:09;5.70;;;3.67;;
1471;SDS011;963;42.644;23.336;2023-03-01T09:32:35;3.97;;;3.43;;
1471;SDS011;963;42.644;23.336;2023-03-01T09:35:00;5.77;;;3.47;;
1471;SDS011;963;42.644;23.336;2023-03-01T09:37:28;4.77;;;2.80;;
1471;SDS011;963;42.644;23.336;2023-03-01T09:39:54;4.57;;;3.47;;
1471;SDS011;963;42.644;23.336;2023-03-01T09:42:19;4.60;;;3.00;;
1471;SDS011;963;42.644;23.336;2023-03-01T09:44:50;4.50;;;3.03;;
1471;SDS011;963;42.644;23.336;2023-03-01T09:47:24;9.30;;;4.13;;
1471;SDS011;963;42.644;23.336;2023-03-01T09:54:59;6.90;;;3.10;;
1471;SDS011;963;42.644;23.336;2023-03-01T09:57:30;4.20;;;3.20;;
1471;SDS011;963;42.644;23.336;2023-03-01T10:02:39;3.30;;;2.60;;
1471;SDS011;963;42.644;23.336;2023-03-01T10:05:09;4.57;;;2.70;;
1471;SDS011;963;42.644;23.336;2023-03-01T10:07:45;4.70;;;3.20;;
1471;SDS011;963;42.644;23.336;2023-03-01T10:10:34;2.87;;;2.53;;
1471;SDS011;963;42.644;23.336;2023-03-01T10:13:04;5.00;;;3.00;;
1471;SDS011;963;42.644;23.336;2023-03-01T10:16:04;5.57;;;2.80;;
1471;SDS011;963;42.644;23.336;2023-03-01T10:18:37;4.30;;;3.13;;
1471;SDS011;963;42.644;23.336;2023-03-01T10:21:08;6.47;;;3.50;;
1471;SDS011;963;42.644;23.336;2023-03-01T10:23:35;9.90;;;3.87;;
1471;SDS011;963;42.644;23.336;2023-03-01T10:31:41;4.20;;;3.60;;
1471;SDS011;963;42.644;23.336;2023-03-01T10:34:29;5.20;;;3.93;;
1471;SDS011;963;42.644;23.336;2023-03-01T10:36:56;6.93;;;5.40;;
1471;SDS011;963;42.644;23.336;2023-03-01T10:39:26;4.60;;;3.30;;
1471;SDS011;963;42.644;23.336;2023-03-01T10:47:03;4.23;;;3.83;;
1471;SDS011;963;42.644;23.336;2023-03-01T10:49:29;10.13;;;4.43;;
1471;SDS011;963;42.644;23.336;2023-03-01T10:51:54;10.23;;;5.17;;
1471;SDS011;963;42.644;23.336;2023-03-01T10:54:25;5.03;;;3.20;;
1471;SDS011;963;42.644;23.336;2023-03-01T10:57:00;6.17;;;3.83;;
1471;SDS011;963;42.644;23.336;2023-03-01T10:59:29;3.60;;;2.70;;
1471;SDS011;963;42.644;23.336;2023-03-01T11:02:16;4.77;;;3.50;;
1471;SDS011;963;42.644;23.336;2023-03-01T11:04:56;5.00;;;3.20;;
1471;SDS011;963;42.644;23.336;2023-03-01T11:07:48;4.37;;;3.20;;
1471;SDS011;963;42.644;23.336;2023-03-01T11:10:19;4.17;;;3.40;;
1471;SDS011;963;42.644;23.336;2023-03-01T11:12:47;5.53;;;2.73;;
1471;SDS011;963;42.644;23.336;2023-03-01T11:15:23;4.90;;;3.17;;
1471;SDS011;963;42.644;23.336;2023-03-01T11:17:51;5.23;;;3.37;;
1471;SDS011;963;42.644;23.336;2023-03-01T11:20:32;7.83;;;3.93;;
1471;SDS011;963;42.644;23.336;2023-03-01T11:23:04;3.70;;;3.20;;
1471;SDS011;963;42.644;23.336;2023-03-01T11:25:35;7.70;;;4.50;;
1471;SDS011;963;42.644;23.336;2023-03-01T11:28:03;4.13;;;3.33;;
1471;SDS011;963;42.644;23.336;2023-03-01T11:30:32;5.57;;;4.17;;
1471;SDS011;963;42.644;23.336;2023-03-01T11:33:08;4.43;;;3.50;;
1471;SDS011;963;42.644;23.336;2023-03-01T11:35:42;4.63;;;3.60;;
1471;SDS011;963;42.644;23.336;2023-03-01T11:43:35;4.40;;;3.90;;
1471;SDS011;963;42.644;23.336;2023-03-01T11:54:30;5.50;;;4.43;;
1471;SDS011;963;42.644;23.336;2023-03-01T11:59:51;5.43;;;4.00;;
1471;SDS011;963;42.644;23.336;2023-03-01T12:11:52;6.13;;;5.33;;
1471;SDS011;963;42.644;23.336;2023-03-01T12:27:47;6.97;;;4.43;;
1471;SDS011;963;42.644;23.336;2023-03-01T12:38:40;6.13;;;4.37;;
1471;SDS011;963;42.644;23.336;2023-03-01T12:47:19;9.03;;;4.30;;
1471;SDS011;963;42.644;23.336;2023-03-01T12:49:47;4.03;;;3.43;;
1471;SDS011;963;42.644;23.336;2023-03-01T12:52:21;8.63;;;4.83;;
1471;SDS011;963;42.644;23.336;2023-03-01T12:54:54;6.57;;;4.70;;
1471;SDS011;963;42.644;23.336;2023-03-01T12:57:26;6.13;;;4.40;;
1471;SDS011;963;42.644;23.336;2023-03-01T13:02:49;4.63;;;4.20;;
1471;SDS011;963;42.644;23.336;2023-03-01T13:05:24;8.80;;;4.90;;
1471;SDS011;963;42.644;23.336;2023-03-01T13:11:03;9.30;;;5.33;;
1471;SDS011;963;42.644;23.336;2023-03-01T13:13:31;7.07;;;4.53;;
1471;SDS011;963;42.644;23.336;2023-03-01T13:15:56;4.80;;;3.50;;
1471;SDS011;963;42.644;23.336;2023-03-01T13:20:49;6.73;;;5.20;;
1471;SDS011;963;42.644;23.336;2023-03-01T13:28:36;7.13;;;5.57;;
1471;SDS011;963;42.644;23.336;2023-03-01T13:33:45;7.00;;;5.10;;
1471;SDS011;963;42.644;23.336;2023-03-01T13:46:48;6.83;;;5.13;;
1471;SDS011;963;42.644;23.336;2023-03-01T13:49:20;6.47;;;4.63;;
1471;SDS011;963;42.644;23.336;2023-03-01T13:51:50;5.40;;;4.43;;
1471;SDS011;963;42.644;23.336;2023-03-01T13:54:19;6.07;;;3.90;;
1471;SDS011;963;42.644;23.336;2023-03-01T13:56:58;7.70;;;4.80;;
1471;SDS011;963;42.644;23.336;2023-03-01T13:59:26;6.13;;;4.53;;
1471;SDS011;963;42.644;23.336;2023-03-01T14:01:55;6.50;;;4.70;;
1471;SDS011;963;42.644;23.336;2023-03-01T14:04:28;7.00;;;4.40;;
1471;SDS011;963;42.644;23.336;2023-03-01T14:09:45;6.70;;;3.83;;
1471;SDS011;963;42.644;23.336;2023-03-01T14:15:01;5.70;;;4.67;;
1471;SDS011;963;42.644;23.336;2023-03-01T14:17:37;5.70;;;5.10;;
1471;SDS011;963;42.644;23.336;2023-03-01T14:20:24;6.17;;;3.80;;
1471;SDS011;963;42.644;23.336;2023-03-01T14:23:01;6.83;;;4.30;;
1471;SDS011;963;42.644;23.336;2023-03-01T14:25:34;7.17;;;4.17;;
1471;SDS011;963;42.644;23.336;2023-03-01T14:30:42;6.33;;;4.60;;
1471;SDS011;963;42.644;23.336;2023-03-01T14:33:26;4.70;;;3.90;;
1471;SDS011;963;42.644;23.336;2023-03-01T14:36:08;6.30;;;4.13;;
1471;SDS011;963;42.644;23.336;2023-03-01T14:41:09;6.27;;;3.57;;
1471;SDS011;963;42.644;23.336;2023-03-01T14:43:41;4.43;;;3.50;;
1471;SDS011;963;42.644;23.336;2023-03-01T14:49:02;4.83;;;3.83;;
1471;SDS011;963;42.644;23.336;2023-03-01T14:51:41;8.13;;;4.40;;
1471;SDS011;963;42.644;23.336;2023-03-01T14:54:43;5.10;;;3.97;;
1471;SDS011;963;42.644;23.336;2023-03-01T14:57:26;5.70;;;3.87;;
1471;SDS011;963;42.644;23.336;2023-03-01T14:59:53;6.53;;;4.13;;
1471;SDS011;963;42.644;23.336;2023-03-01T15:02:30;5.10;;;4.30;;
1471;SDS011;963;42.644;23.336;2023-03-01T15:05:01;4.93;;;3.63;;
1471;SDS011;963;42.644;23.336;2023-03-01T15:07:33;4.30;;;3.90;;
1471;SDS011;963;42.644;23.336;2023-03-01T15:10:02;6.43;;;3.90;;
1471;SDS011;963;42.644;23.336;2023-03-01T15:12:37;5.40;;;3.93;;
1471;SDS011;963;42.644;23.336;2023-03-01T15:15:18;5.37;;;4.30;;
1471;SDS011;963;42.644;23.336;2023-03-01T15:17:56;5.47;;;4.20;;
1471;SDS011;963;42.644;23.336;2023-03-01T15:20:25;10.33;;;5.83;;
1471;SDS011;963;42.644;23.336;2023-03-01T15:22:53;7.73;;;4.47;;
1471;SDS011;963;42.644;23.336;2023-03-01T15:25:21;9.13;;;4.60;;
1471;SDS011;963;42.644;23.336;2023-03-01T15:27:49;7.77;;;5.20;;
1471;SDS011;963;42.644;23.336;2023-03-01T15:30:17;6.00;;;4.67;;
1471;SDS011;963;42.644;23.336;2023-03-01T15:32:44;7.73;;;5.13;;
1471;SDS011;963;42.644;23.336;2023-03-01T15:38:00;8.87;;;4.63;;
1471;SDS011;963;42.644;23.336;2023-03-01T15:40:27;8.90;;;5.23;;
1471;SDS011;963;42.644;23.336;2023-03-01T15:43:00;7.63;;;5.10;;
1471;SDS011;963;42.644;23.336;2023-03-01T15:45:28;6.13;;;4.43;;
1471;SDS011;963;42.644;23.336;2023-03-01T15:47:58;8.13;;;5.03;;
1471;SDS011;963;42.644;23.336;2023-03-01T15:52:58;9.73;;;5.90;;
1471;SDS011;963;42.644;23.336;2023-03-01T15:55:28;6.80;;;4.60;;
1471;SDS011;963;42.644;23.336;2023-03-01T15:58:14;11.00;;;4.10;;
1471;SDS011;963;42.644;23.336;2023-03-01T16:00:44;6.33;;;4.30;;
1471;SDS011;963;42.644;23.336;2023-03-01T16:03:10;6.07;;;4.37;;
1471;SDS011;963;42.644;23.336;2023-03-01T16:05:37;7.47;;;4.70;;
1471;SDS011;963;42.644;23.336;2023-03-01T16:08:03;9.10;;;4.60;;
1471;SDS011;963;42.644;23.336;2023-03-01T16:10:30;7.20;;;5.17;;
1471;SDS011;963;42.644;23.336;2023-03-01T16:12:57;6.60;;;4.43;;
1471;SDS011;963;42.644;23.336;2023-03-01T16:15:30;11.80;;;5.30;;
1471;SDS011;963;42.644;23.336;2023-03-01T16:17:57;6.70;;;4.33;;
1471;SDS011;963;42.644;23.336;2023-03-01T16:20:27;7.10;;;4.80;;
1471;SDS011;963;42.644;23.336;2023-03-01T16:22:54;5.93;;;5.20;;
1471;SDS011;963;42.644;23.336;2023-03-01T16:25:22;10.10;;;5.27;;
1471;SDS011;963;42.644;23.336;2023-03-01T16:27:49;6.13;;;4.67;;
1471;SDS011;963;42.644;23.336;2023-03-01T16:30:17;6.40;;;4.40;;
1471;SDS011;963;42.644;23.336;2023-03-01T16:32:45;9.23;;;5.17;;
1471;SDS011;963;42.644;23.336;2023-03-01T16:35:12;10.30;;;5.70;;
1471;SDS011;963;42.644;23.336;2023-03-01T16:37:39;10.23;;;5.70;;
1471;SDS011;963;42.644;23.336;2023-03-01T16:40:05;8.07;;;4.73;;
1471;SDS011;963;42.644;23.336;2023-03-01T16:42:40;8.20;;;5.73;;
1471;SDS011;963;42.644;23.336;2023-03-01T16:45:07;10.30;;;5.77;;
1471;SDS011;963;42.644;23.336;2023-03-01T16:47:33;8.57;;;5.20;;
1471;SDS011;963;42.644;23.336;2023-03-01T16:49:59;11.43;;;4.70;;
1471;SDS011;963;42.644;23.336;2023-03-01T16:52:24;7.13;;;4.67;;
1471;SDS011;963;42.644;23.336;2023-03-01T16:54:50;10.03;;;4.53;;
1471;SDS011;963;42.644;23.336;2023-03-01T16:57:15;10.90;;;5.07;;
1471;SDS011;963;42.644;23.336;2023-03-01T16:59:41;7.57;;;4.23;;
1471;SDS011;963;42.644;23.336;2023-03-01T17:02:09;9.77;;;5.53;;
1471;SDS011;963;42.644;23.336;2023-03-01T17:04:36;8.20;;;4.80;;
1471;SDS011;963;42.644;23.336;2023-03-01T17:07:02;6.27;;;4.40;;
1471;SDS011;963;42.644;23.336;2023-03-01T17:09:27;7.63;;;5.13;;
1471;SDS011;963;42.644;23.336;2023-03-01T17:11:53;5.60;;;4.27;;
1471;SDS011;963;42.644;23.336;2023-03-01T17:14:19;8.00;;;4.40;;
1471;SDS011;963;42.644;23.336;2023-03-01T17:16:44;7.37;;;4.60;;
1471;SDS011;963;42.644;23.336;2023-03-01T17:19:10;10.20;;;4.37;;
1471;SDS011;963;42.644;23.336;2023-03-01T17:21:36;4.97;;;3.80;;
1471;SDS011;963;42.644;23.336;2023-03-01T17:24:01;6.53;;;3.70;;
1471;SDS011;963;42.644;23.336;2023-03-01T17:26:28;10.97;;;5.10;;
1471;SDS011;963;42.644;23.336;2023-03-01T17:28:54;8.67;;;4.10;;
1471;SDS011;963;42.644;23.336;2023-03-01T17:31:20;5.60;;;4.10;;
1471;SDS011;963;42.644;23.336;2023-03-01T17:33:46;7.00;;;4.40;;
1471;SDS011;963;42.644;23.336;2023-03-01T17:36:12;4.53;;;3.30;;
1471;SDS011;963;42.644;23.336;2023-03-01T17:38:37;7.33;;;4.77;;